Time;durP1;ratioP1;P1;durP2;ratioP2;P2;SDS_P1;SDS_P2;PMS_P1;PMS_P2;Temp;Humidity;BMP_temperature;BMP_pressure;BME280_temperature;BME280_humidity;BME280_pressure;Samples;Min_cycle;Max_cycle;Signal;HPM_P1;HPM_P2
2023/03/06 00:01:14;;;;;;;19.40;11.00;;;;;;;1.62;55.48;94128.19;5069756;28;20028;-83
2023/03/06 00:03:41;;;;;;;17.83;10.82;;;;;;;2.09;56.42;94199.66;5050700;28;20040;-83
2023/03/06 00:06:08;;;;;;;17.55;10.27;;;;;;;1.38;56.08;94077.50;5046406;28;20075;-82
2023/03/06 00:08:33;;;;;;;15.68;10.52;;;;;;;1.09;55.58;94048.50;5047557;28;20499;-84
2023/03/06 00:10:59;;;;;;;14.57;10.23;;;;;;;1.23;55.51;94075.84;5014305;28;20035;-82
2023/03/06 00:13:28;;;;;;;17.75;9.90;;;;;;;1.84;56.15;94200.28;5028738;28;20021;-82
2023/03/06 00:15:57;;;;;;;15.93;9.68;;;;;;;1.83;56.86;94187.56;5047959;28;20029;-82
2023/03/06 00:18:22;;;;;;;14.60;9.57;;;;;;;1.11;56.25;94073.09;5020104;28;20112;-82
2023/03/06 00:20:48;;;;;;;19.10;10.50;;;;;;;1.22;56.32;94085.25;5014037;28;20037;-82
2023/03/06 00:23:14;;;;;;;15.15;9.70;;;;;;;0.67;56.37;93998.91;5030492;28;20033;-82
2023/03/06 00:25:43;;;;;;;17.17;9.88;;;;;;;1.09;56.12;94074.09;5018093;28;20041;-81
2023/03/06 00:28:09;;;;;;;18.98;10.82;;;;;;;0.89;56.46;94052.19;5014616;28;20037;-82
2023/03/06 00:30:34;;;;;;;17.27;10.02;;;;;;;0.74;57.02;94064.13;5031402;28;20041;-83
2023/03/06 00:33:00;;;;;;;21.13;10.52;;;;;;;0.66;57.52;94079.88;5015010;28;20503;-81
2023/03/06 00:35:25;;;;;;;17.83;9.77;;;;;;;1.47;57.89;94199.00;5032298;28;20385;-82
2023/03/06 00:37:50;;;;;;;17.58;10.23;;;;;;;0.44;58.18;94054.69;5014594;28;20025;-82
2023/03/06 00:40:18;;;;;;;16.38;8.93;;;;;;;0.65;58.66;94060.34;5047894;28;20533;-83
2023/03/06 00:42:43;;;;;;;17.60;10.25;;;;;;;0.73;58.94;94077.81;5013738;28;20539;-82
2023/03/06 00:45:09;;;;;;;19.65;11.23;;;;;;;0.78;58.27;94096.28;5030903;28;20044;-82
2023/03/06 00:47:35;;;;;;;21.73;11.75;;;;;;;1.19;59.29;94171.59;5030676;28;20030;-82
2023/03/06 00:50:00;;;;;;;21.08;12.30;;;;;;;0.73;59.53;94072.72;5014374;28;20038;-82
2023/03/06 00:52:26;;;;;;;23.27;12.57;;;;;;;0.61;59.19;94052.94;5030428;28;20106;-82
2023/03/06 00:54:51;;;;;;;21.52;10.95;;;;;;;1.19;59.74;94177.53;5017848;28;20061;-82
2023/03/06 00:57:17;;;;;;;23.35;11.10;;;;;;;0.59;59.53;94075.22;5032951;28;20045;-82
2023/03/06 00:59:43;;;;;;;22.90;11.65;;;;;;;0.34;59.28;94045.09;5035758;28;20046;-81
2023/03/06 01:02:08;;;;;;;24.25;13.13;;;;;;;0.62;59.50;94100.59;5013623;28;20040;-82
2023/03/06 01:04:34;;;;;;;19.55;11.15;;;;;;;0.73;59.82;94117.91;5013468;28;20562;-82
2023/03/06 01:07:00;;;;;;;23.52;12.68;;;;;;;0.50;60.90;94093.59;5013843;28;20041;-82
2023/03/06 01:09:26;;;;;;;24.70;13.18;;;;;;;0.27;61.21;94062.47;5031935;28;20038;-81
2023/03/06 01:11:52;;;;;;;19.50;12.18;;;;;;;0.19;60.79;94051.84;5030882;28;20037;-83
2023/03/06 01:14:20;;;;;;;23.17;12.35;;;;;;;0.25;60.36;94043.00;5031864;28;20029;-82
2023/03/06 01:16:46;;;;;;;21.92;12.85;;;;;;;0.51;60.57;94101.19;5014004;28;20025;-82
2023/03/06 01:19:11;;;;;;;21.70;12.02;;;;;;;0.21;60.54;94073.03;5029737;28;20040;-81
2023/03/06 01:21:37;;;;;;;20.45;12.20;;;;;;;0.10;61.08;94052.34;5050391;28;20499;-82
2023/03/06 01:24:02;;;;;;;20.00;11.52;;;;;;;0.04;60.21;94068.81;5051192;28;20570;-79
2023/03/06 01:26:28;;;;;;;21.20;12.38;;;;;;;0.78;61.05;94190.91;5046913;28;20033;-82
2023/03/06 01:28:56;;;;;;;22.48;12.60;;;;;;;-0.19;61.83;94049.63;5013021;28;20041;-82
2023/03/06 01:31:22;;;;;;;20.08;10.60;;;;;;;-0.01;61.79;94056.28;5013361;28;20040;-82
2023/03/06 01:33:47;;;;;;;18.10;11.00;;;;;;;-0.08;61.68;94039.66;4996717;28;20045;-82
2023/03/06 01:36:13;;;;;;;17.77;11.05;;;;;;;0.67;61.61;94144.63;5013223;28;20029;-80
2023/03/06 01:38:38;;;;;;;21.65;13.02;;;;;;;0.07;62.69;94057.63;5050863;28;20033;-83
2023/03/06 01:41:04;;;;;;;20.52;11.80;;;;;;;0.57;62.70;94157.09;5016952;28;20067;-83
2023/03/06 01:43:32;;;;;;;18.95;11.82;;;;;;;-0.14;62.33;94039.16;5029525;28;20037;-82
2023/03/06 01:46:19;;;;;;;18.75;11.65;;;;;;;0.83;62.64;94191.44;5029698;28;20046;-82
2023/03/06 01:48:44;;;;;;;22.10;13.32;;;;;;;0.19;62.55;94093.53;5046556;28;20562;-82
2023/03/06 01:51:10;;;;;;;26.52;16.30;;;;;;;0.17;62.66;94120.09;5013257;28;20041;-84
2023/03/06 01:53:36;;;;;;;26.95;15.63;;;;;;;0.30;62.57;94151.72;5027262;28;20037;-83
2023/03/06 01:56:01;;;;;;;24.63;14.50;;;;;;;0.52;62.38;94178.69;5013166;28;20034;-84
2023/03/06 01:58:26;;;;;;;28.42;15.38;;;;;;;0.46;62.89;94187.50;5024280;28;20235;-83
2023/03/06 02:00:52;;;;;;;25.15;15.85;;;;;;;-0.35;63.45;94071.75;5025675;28;20040;-83
2023/03/06 02:03:20;;;;;;;26.58;16.50;;;;;;;-0.02;63.58;94089.59;5026781;28;20516;-82
2023/03/06 02:05:46;;;;;;;23.30;14.27;;;;;;;-0.20;62.74;94081.16;5037177;28;20024;-84
2023/03/06 02:08:13;;;;;;;25.65;15.50;;;;;;;-0.33;63.87;94058.00;5036847;28;20060;-83
2023/03/06 02:11:01;;;;;;;26.85;14.52;;;;;;;0.16;63.43;94141.41;5049804;28;20122;-83
2023/03/06 02:13:27;;;;;;;22.45;13.02;;;;;;;-0.37;62.61;94033.53;5016016;28;20049;-83
2023/03/06 02:15:53;;;;;;;23.65;14.35;;;;;;;-0.34;62.58;94063.19;5016671;28;20022;-83
2023/03/06 02:18:18;;;;;;;22.90;14.43;;;;;;;-0.19;62.85;94098.13;5019278;28;20103;-83
2023/03/06 02:20:52;;;;;;;23.02;12.95;;;;;;;-0.38;63.02;94077.03;5016960;28;20099;-83
2023/03/06 02:23:20;;;;;;;24.25;13.80;;;;;;;0.28;63.25;94196.13;5016991;28;20042;-82
2023/03/06 02:25:47;;;;;;;19.88;12.63;;;;;;;-0.65;63.23;94063.94;5050165;28;20484;-84
2023/03/06 02:28:15;;;;;;;24.02;14.23;;;;;;;-0.60;63.55;94100.25;5012058;28;20029;-83
2023/03/06 02:30:41;;;;;;;22.33;12.00;;;;;;;-0.64;63.53;94102.16;5015919;28;20079;-83
2023/03/06 02:33:07;;;;;;;19.23;12.05;;;;;;;-0.36;63.37;94139.00;4999886;28;20492;-83
2023/03/06 02:35:34;;;;;;;21.63;11.75;;;;;;;-0.61;63.28;94119.84;5016605;28;20053;-83
2023/03/06 02:38:03;;;;;;;18.15;11.02;;;;;;;-1.04;63.55;94073.53;5016188;28;20033;-83
2023/03/06 02:40:29;;;;;;;19.85;10.88;;;;;;;-0.70;63.89;94130.50;5000323;28;20033;-83
2023/03/06 02:42:56;;;;;;;20.42;10.88;;;;;;;-1.10;63.57;94048.34;5006440;28;20033;-83
2023/03/06 02:45:43;;;;;;;20.00;11.23;;;;;;;-1.05;63.71;94091.47;5016535;28;20041;-83
2023/03/06 02:48:08;;;;;;;17.60;9.55;;;;;;;-0.98;64.40;94103.81;5017805;28;20547;-83
2023/03/06 02:50:34;;;;;;;15.70;9.45;;;;;;;-0.19;65.25;94217.31;5017715;28;20112;-81
2023/03/06 02:52:59;;;;;;;17.08;9.43;;;;;;;-0.84;65.00;94138.00;5052989;28;20033;-83
2023/03/06 02:55:25;;;;;;;17.20;9.93;;;;;;;-0.31;64.08;94216.19;5036314;28;20093;-83
2023/03/06 02:57:50;;;;;;;20.15;10.80;;;;;;;-0.95;64.31;94134.28;5047208;28;20054;-83
2023/03/06 03:00:16;;;;;;;15.63;9.05;;;;;;;-0.78;64.61;94135.16;5015658;28;20438;-83
2023/03/06 03:02:42;;;;;;;23.35;14.07;;;;;;;-1.11;64.82;94123.19;5032184;28;20045;-83
2023/03/06 03:05:07;;;;;;;23.10;13.02;;;;;;;-0.51;65.44;94219.72;5023320;28;20030;-84
2023/03/06 03:07:33;;;;;;;24.85;14.82;;;;;;;-0.56;65.53;94225.03;5032285;28;20041;-83
2023/03/06 03:09:58;;;;;;;22.50;13.15;;;;;;;-1.74;66.10;94031.09;5023450;28;20029;-82
2023/03/06 03:12:24;;;;;;;21.88;13.85;;;;;;;-1.13;65.23;94130.06;5035612;28;20059;-84
2023/03/06 03:14:49;;;;;;;24.17;14.65;;;;;;;-1.41;65.87;94085.50;5016522;28;20025;-83
2023/03/06 03:17:16;;;;;;;23.95;14.45;;;;;;;-1.55;66.46;94067.53;5033232;28;20036;-83
2023/03/06 03:19:41;;;;;;;20.63;11.80;;;;;;;-0.56;65.87;94214.84;5029749;28;20368;-83
2023/03/06 03:22:07;;;;;;;21.75;13.30;;;;;;;-1.39;66.50;94093.09;5032192;28;20480;-83
2023/03/06 03:24:32;;;;;;;27.60;16.70;;;;;;;-0.96;66.48;94136.91;5033042;28;20036;-83
2023/03/06 03:26:58;;;;;;;23.48;14.85;;;;;;;-0.80;67.16;94182.88;5030246;28;20488;-83
2023/03/06 03:29:23;;;;;;;22.45;13.90;;;;;;;-0.72;65.86;94168.03;5031787;28;20051;-84
2023/03/06 03:31:49;;;;;;;21.42;13.65;;;;;;;-0.72;66.20;94188.44;4998484;28;20030;-84
2023/03/06 03:34:14;;;;;;;20.70;13.43;;;;;;;-1.11;66.49;94135.94;5015346;28;20037;-84
2023/03/06 03:36:40;;;;;;;23.63;13.75;;;;;;;-1.46;66.50;94082.34;5031974;28;20029;-82
2023/03/06 03:39:05;;;;;;;24.90;13.35;;;;;;;-1.46;66.00;94087.44;5031919;28;20026;-82
2023/03/06 03:41:32;;;;;;;23.13;12.45;;;;;;;-1.61;66.30;94078.00;5015443;28;20559;-83
2023/03/06 03:43:57;;;;;;;20.80;11.68;;;;;;;-1.51;65.71;94103.84;5036721;28;20041;-82
2023/03/06 03:46:23;;;;;;;18.75;10.90;;;;;;;-0.80;67.13;94241.56;5013903;28;20396;-83
2023/03/06 03:48:48;;;;;;;16.30;9.52;;;;;;;-0.88;66.72;94210.50;5030527;28;20041;-83
2023/03/06 03:51:15;;;;;;;17.88;10.43;;;;;;;-1.41;65.76;94112.72;5040323;28;20049;-82
2023/03/06 03:53:41;;;;;;;16.08;9.82;;;;;;;-1.27;66.27;94137.56;5031760;28;20033;-83
2023/03/06 03:56:06;;;;;;;17.77;10.55;;;;;;;-1.63;66.59;94103.53;5029583;28;20458;-83
2023/03/06 03:58:32;;;;;;;18.40;10.90;;;;;;;-1.06;67.00;94207.88;5031013;28;20053;-83
2023/03/06 04:00:57;;;;;;;22.85;11.20;;;;;;;-0.94;67.39;94237.09;5011514;28;20041;-83
2023/03/06 04:03:23;;;;;;;20.70;11.63;;;;;;;-1.49;67.16;94127.53;5048448;28;20524;-82
2023/03/06 04:05:49;;;;;;;19.38;10.85;;;;;;;-1.45;68.29;94170.66;5013023;28;20513;-83
2023/03/06 04:08:14;;;;;;;15.93;10.23;;;;;;;-0.96;67.73;94249.09;5046882;28;20078;-83
2023/03/06 04:10:40;;;;;;;18.17;9.32;;;;;;;-1.34;65.66;94165.03;5014289;28;20029;-80
2023/03/06 04:13:05;;;;;;;16.05;9.32;;;;;;;-2.25;66.88;94058.88;5045303;28;20482;-82
2023/03/06 04:15:31;;;;;;;16.95;8.88;;;;;;;-1.93;67.59;94128.69;5046450;28;20035;-80
2023/03/06 04:17:56;;;;;;;20.70;10.65;;;;;;;-1.96;67.92;94120.38;5028884;28;20525;-82
2023/03/06 04:20:22;;;;;;;14.50;9.07;;;;;;;-1.66;68.46;94156.34;5010417;28;20036;-83
2023/03/06 04:22:47;;;;;;;15.88;9.70;;;;;;;-1.76;69.08;94147.47;5030700;28;20037;-82
2023/03/06 04:25:13;;;;;;;16.83;10.43;;;;;;;-1.90;68.49;94104.81;5027290;28;20212;-82
2023/03/06 04:27:39;;;;;;;18.15;10.45;;;;;;;-0.92;68.07;94258.25;5027082;28;20052;-81
2023/03/06 04:30:05;;;;;;;19.02;9.82;;;;;;;-0.93;68.28;94257.41;5046735;28;20025;-81
2023/03/06 04:32:31;;;;;;;18.10;9.98;;;;;;;-1.51;68.44;94185.38;5029650;28;20128;-83
2023/03/06 04:34:57;;;;;;;17.67;10.55;;;;;;;-1.15;68.90;94223.63;5029166;28;20789;-82
2023/03/06 04:37:23;;;;;;;19.52;10.90;;;;;;;-1.56;68.94;94157.59;5012841;28;20069;-82
2023/03/06 04:39:49;;;;;;;17.95;9.98;;;;;;;-1.27;68.42;94196.19;5012933;28;20063;-83
2023/03/06 04:42:15;;;;;;;46.70;23.20;;;;;;;-1.46;68.49;94165.63;5030657;28;20132;-83
2023/03/06 04:44:40;;;;;;;52.13;21.95;;;;;;;-0.77;68.90;94269.47;5048151;28;20437;-82
2023/03/06 04:47:06;;;;;;;36.78;15.93;;;;;;;-1.38;69.44;94174.56;5005037;28;20040;-84
2023/03/06 04:49:31;;;;;;;19.40;11.07;;;;;;;-1.28;69.24;94169.00;4996270;28;20029;-80
2023/03/06 04:51:57;;;;;;;19.92;11.02;;;;;;;-1.38;69.03;94138.06;5012493;28;20037;-81
2023/03/06 04:54:22;;;;;;;18.50;10.00;;;;;;;-0.75;69.30;94237.06;5016989;28;20041;-82
2023/03/06 04:56:48;;;;;;;15.13;9.50;;;;;;;-0.56;67.97;94245.44;5029561;28;20158;-83
2023/03/06 04:59:13;;;;;;;15.02;8.85;;;;;;;-0.88;68.04;94182.44;5047742;28;20108;-82
2023/03/06 05:01:39;;;;;;;16.05;9.55;;;;;;;-1.04;68.21;94159.38;5013586;28;20067;-83
2023/03/06 05:04:04;;;;;;;15.05;9.35;;;;;;;-0.59;68.92;94226.94;5011660;28;20029;-83
2023/03/06 05:06:30;;;;;;;15.98;9.52;;;;;;;-0.31;67.11;94239.16;5043779;28;20025;-83
2023/03/06 05:08:56;;;;;;;25.23;15.15;;;;;;;-0.72;67.53;94175.69;5009871;28;20084;-83
2023/03/06 05:11:21;;;;;;;18.23;11.35;;;;;;;-0.09;67.93;94252.50;5028124;28;20029;-83
2023/03/06 05:13:48;;;;;;;17.73;9.80;;;;;;;0.06;67.15;94270.53;5044193;28;20029;-83
2023/03/06 05:16:13;;;;;;;15.20;9.18;;;;;;;-0.09;67.25;94233.81;5028986;28;20547;-82
2023/03/06 05:18:39;;;;;;;17.60;9.80;;;;;;;-0.09;66.49;94221.03;5046075;28;20048;-83
2023/03/06 05:21:04;;;;;;;17.92;10.23;;;;;;;0.30;65.89;94274.38;5029238;28;20502;-83
2023/03/06 05:23:31;;;;;;;21.27;13.20;;;;;;;-0.38;64.53;94158.69;5027433;28;20040;-83
2023/03/06 05:25:57;;;;;;;22.88;11.68;;;;;;;-0.10;63.86;94191.31;5026594;28;20064;-83
2023/03/06 05:28:22;;;;;;;20.80;11.65;;;;;;;-0.19;63.68;94164.53;5048889;28;20061;-83
2023/03/06 05:30:48;;;;;;;21.73;10.75;;;;;;;-0.19;63.94;94145.81;5012313;28;20120;-83
2023/03/06 05:33:13;;;;;;;15.10;9.15;;;;;;;0.28;64.00;94209.75;5045826;28;20262;-83
2023/03/06 05:35:43;;;;;;;16.42;10.55;;;;;;;0.40;63.61;94210.84;5000380;28;20226;-83
2023/03/06 05:38:09;;;;;;;17.95;11.10;;;;;;;0.09;63.62;94153.69;5021959;28;20044;-83
2023/03/06 05:40:35;;;;;;;18.25;11.23;;;;;;;0.02;64.58;94133.66;5008185;28;20037;-83
2023/03/06 05:43:00;;;;;;;19.33;10.90;;;;;;;0.21;63.56;94154.78;5036326;28;20045;-83
2023/03/06 05:45:26;;;;;;;21.45;12.48;;;;;;;0.53;63.46;94204.19;5021928;28;20030;-83
2023/03/06 05:47:51;;;;;;;24.02;13.00;;;;;;;1.07;64.25;94263.47;5040609;28;20104;-84
2023/03/06 05:50:18;;;;;;;26.00;15.18;;;;;;;1.09;64.06;94258.28;5008803;28;20091;-84
2023/03/06 05:52:43;;;;;;;29.63;15.20;;;;;;;1.14;64.66;94281.84;5027359;28;20037;-84
2023/03/06 05:55:10;;;;;;;24.25;14.52;;;;;;;0.80;64.06;94206.97;5036965;28;20029;-84
2023/03/06 05:57:35;;;;;;;26.13;12.77;;;;;;;1.02;64.38;94221.97;5019559;28;20072;-83
2023/03/06 06:00:02;;;;;;;21.65;12.52;;;;;;;0.77;64.33;94171.34;5024866;28;20033;-80
2023/03/06 06:02:28;;;;;;;17.30;10.95;;;;;;;0.91;62.89;94177.44;5042326;28;20037;-81
2023/03/06 06:04:53;;;;;;;18.70;11.13;;;;;;;1.40;62.57;94246.34;5042615;28;20406;-80
2023/03/06 06:07:19;;;;;;;16.15;10.57;;;;;;;1.17;62.95;94210.06;5044343;28;20029;-80
2023/03/06 06:09:45;;;;;;;18.50;11.07;;;;;;;0.93;62.73;94171.31;5026354;28;20036;-81
2023/03/06 06:12:10;;;;;;;18.00;10.05;;;;;;;0.98;62.56;94174.44;5028504;28;20044;-80
2023/03/06 06:14:36;;;;;;;19.38;11.18;;;;;;;1.71;63.22;94288.97;5025683;28;20465;-80
2023/03/06 06:17:01;;;;;;;20.17;11.13;;;;;;;1.15;62.14;94193.97;5048080;28;20515;-80
2023/03/06 06:19:28;;;;;;;16.98;10.50;;;;;;;1.39;61.25;94193.50;5046245;28;20021;-81
2023/03/06 06:21:54;;;;;;;17.67;10.43;;;;;;;1.59;60.98;94194.91;5045540;28;20116;-80
2023/03/06 06:24:21;;;;;;;18.95;9.70;;;;;;;4.73;55.87;94279.56;5041581;28;20159;-79
2023/03/06 06:26:48;;;;;;;16.83;9.73;;;;;;;6.10;49.90;94219.16;5044616;28;20167;-81
2023/03/06 06:29:14;;;;;;;15.27;10.32;;;;;;;7.01;47.49;94229.38;5042496;28;20144;-83
2023/03/06 06:31:40;;;;;;;15.10;10.25;;;;;;;8.60;44.97;94301.06;5021246;28;20116;-81
2023/03/06 06:34:05;;;;;;;35.42;20.60;;;;;;;9.51;42.21;94286.44;5037920;28;20031;-80
2023/03/06 06:36:31;;;;;;;41.85;25.33;;;;;;;10.88;38.79;94293.25;5039576;28;20021;-80
2023/03/06 06:38:56;;;;;;;24.90;16.27;;;;;;;11.51;35.91;94279.56;5040825;28;20132;-80
2023/03/06 06:41:22;;;;;;;54.03;24.40;;;;;;;11.73;34.29;94290.53;5040119;28;20403;-79
2023/03/06 06:43:48;;;;;;;22.20;13.15;;;;;;;12.60;33.29;94296.88;5046286;28;20044;-80
2023/03/06 06:46:13;;;;;;;18.75;12.02;;;;;;;13.04;31.37;94273.34;5031956;28;20033;-80
2023/03/06 06:48:39;;;;;;;17.55;11.82;;;;;;;13.45;30.67;94263.94;5013063;28;20515;-80
2023/03/06 06:51:04;;;;;;;15.70;10.82;;;;;;;14.70;29.10;94288.31;5045114;28;20025;-80
2023/03/06 06:53:30;;;;;;;15.95;10.88;;;;;;;15.71;27.67;94284.31;5039395;28;20041;-81
2023/03/06 06:56:00;;;;;;;16.95;11.15;;;;;;;16.34;26.80;94291.13;5026487;28;20039;-80
2023/03/06 06:58:25;;;;;;;17.02;12.55;;;;;;;16.51;26.37;94295.25;5027298;28;20136;-81
2023/03/06 07:00:51;;;;;;;15.65;10.32;;;;;;;16.20;25.92;94245.53;5049774;28;20108;-81
2023/03/06 07:03:16;;;;;;;13.88;10.52;;;;;;;16.88;25.28;94285.81;5013915;28;20049;-81
2023/03/06 07:05:41;;;;;;;21.25;10.10;;;;;;;17.16;24.86;94258.94;5029171;28;20048;-81
2023/03/06 07:08:07;;;;;;;17.00;10.70;;;;;;;16.75;24.54;94277.72;5049910;28;20522;-81
2023/03/06 07:10:33;;;;;;;16.20;10.88;;;;;;;17.13;24.34;94296.06;5049195;28;20095;-78
2023/03/06 07:12:58;;;;;;;16.17;10.35;;;;;;;17.11;24.55;94293.63;5049744;28;20491;-78
2023/03/06 07:15:25;;;;;;;15.82;10.88;;;;;;;17.74;24.05;94290.63;5043640;28;20025;-78
2023/03/06 07:17:52;;;;;;;18.08;12.45;;;;;;;17.58;23.97;94262.75;5034918;28;20033;-81
2023/03/06 07:20:18;;;;;;;17.17;10.73;;;;;;;18.59;22.61;94265.47;5034189;28;20364;-80
2023/03/06 07:22:43;;;;;;;13.27;10.35;;;;;;;19.01;22.07;94293.56;5017485;28;20123;-81
2023/03/06 07:25:09;;;;;;;11.35;9.45;;;;;;;19.63;21.17;94290.06;5017387;28;20462;-81
2023/03/06 07:27:35;;;;;;;13.18;10.23;;;;;;;18.97;21.92;94273.88;5033910;28;20037;-81
2023/03/06 07:30:00;;;;;;;13.50;11.10;;;;;;;19.59;21.66;94280.94;5017423;28;20098;-81
2023/03/06 07:32:26;;;;;;;16.23;11.32;;;;;;;19.97;20.97;94274.44;5033891;28;20045;-81
2023/03/06 07:34:51;;;;;;;13.52;9.82;;;;;;;19.85;20.23;94261.81;5052707;28;20071;-81
2023/03/06 07:37:17;;;;;;;14.13;10.00;;;;;;;19.54;20.98;94279.91;5019132;28;20087;-81
2023/03/06 07:39:42;;;;;;;16.00;10.82;;;;;;;19.35;20.95;94281.41;5052173;28;20032;-81
2023/03/06 07:42:11;;;;;;;11.57;10.07;;;;;;;18.88;21.21;94301.34;5035516;28;20029;-81
2023/03/06 07:44:36;;;;;;;14.70;10.55;;;;;;;18.19;21.86;94291.34;5034952;28;20029;-81
2023/03/06 07:47:03;;;;;;;15.10;11.00;;;;;;;18.41;22.14;94297.44;5035394;28;20094;-81
2023/03/06 07:49:29;;;;;;;15.88;11.35;;;;;;;18.62;21.71;94305.34;5052112;28;20063;-81
2023/03/06 07:51:54;;;;;;;12.57;9.90;;;;;;;19.35;20.96;94294.59;5051804;28;20029;-81
2023/03/06 07:54:20;;;;;;;13.57;10.02;;;;;;;19.29;21.01;94287.47;5052951;28;20032;-82
2023/03/06 07:56:49;;;;;;;13.60;9.98;;;;;;;20.41;20.29;94308.22;5050534;28;20033;-81
2023/03/06 07:59:14;;;;;;;14.07;10.50;;;;;;;20.44;19.71;94302.56;5018675;28;20037;-81
2023/03/06 08:01:40;;;;;;;13.07;10.38;;;;;;;18.07;21.62;94277.91;5035012;28;20037;-80
2023/03/06 08:04:05;;;;;;;15.02;10.57;;;;;;;17.91;22.66;94314.91;5052880;28;20025;-80
2023/03/06 08:06:31;;;;;;;13.68;11.35;;;;;;;17.94;22.35;94309.28;5034754;28;20510;-80
2023/03/06 08:08:56;;;;;;;12.52;9.93;;;;;;;16.48;23.71;94305.28;5035172;28;20430;-80
2023/03/06 08:11:23;;;;;;;17.55;10.35;;;;;;;15.68;24.96;94282.00;5034663;28;20086;-80
2023/03/06 08:13:51;;;;;;;17.02;10.43;;;;;;;15.31;26.25;94315.66;5018334;28;20494;-80
2023/03/06 08:16:18;;;;;;;15.15;10.68;;;;;;;14.18;27.82;94306.88;5034824;28;20025;-80
2023/03/06 08:18:44;;;;;;;16.13;10.52;;;;;;;13.33;29.30;94315.59;5051337;28;20033;-80
2023/03/06 08:21:11;;;;;;;12.75;9.68;;;;;;;12.70;29.92;94308.84;5051304;28;20104;-80
2023/03/06 08:23:36;;;;;;;17.50;10.73;;;;;;;12.39;30.46;94318.03;5034823;28;20479;-80
2023/03/06 08:26:07;;;;;;;16.52;10.68;;;;;;;11.99;31.57;94306.28;5034405;28;20043;-80
2023/03/06 08:28:33;;;;;;;15.82;10.32;;;;;;;11.31;31.72;94314.44;5034757;28;20514;-80
2023/03/06 08:31:06;;;;;;;14.20;10.23;;;;;;;11.23;32.56;94298.72;5050991;28;20041;-80
2023/03/06 08:33:31;;;;;;;46.88;31.60;;;;;;;11.31;32.10;94311.81;5035690;28;20430;-80
2023/03/06 08:35:57;;;;;;;15.02;10.00;;;;;;;10.77;32.78;94305.59;5034166;28;20033;-80
2023/03/06 08:38:22;;;;;;;15.35;9.90;;;;;;;10.55;33.86;94301.53;5050804;28;20040;-80
2023/03/06 08:40:47;;;;;;;17.42;10.93;;;;;;;10.36;34.32;94294.56;5034433;28;20029;-80
2023/03/06 08:43:13;;;;;;;19.48;10.63;;;;;;;9.72;35.49;94296.75;5051359;28;20502;-80
2023/03/06 08:45:39;;;;;;;15.70;11.00;;;;;;;9.40;36.37;94295.16;5017924;28;20529;-80
2023/03/06 08:48:04;;;;;;;15.80;10.43;;;;;;;9.54;36.71;94303.50;5050775;28;20381;-80
2023/03/06 08:50:30;;;;;;;16.48;10.15;;;;;;;9.65;35.96;94300.00;5034434;28;20483;-80
2023/03/06 08:52:55;;;;;;;16.55;10.00;;;;;;;9.69;35.66;94296.97;5050684;28;20037;-80
2023/03/06 08:55:20;;;;;;;19.83;9.82;;;;;;;9.65;35.38;94298.22;5033806;28;20025;-80
2023/03/06 08:57:46;;;;;;;15.13;9.75;;;;;;;9.80;35.67;94307.22;5033974;28;20033;-79
2023/03/06 09:00:12;;;;;;;14.35;9.20;;;;;;;9.62;35.74;94291.53;5017659;28;20021;-80
2023/03/06 09:02:38;;;;;;;16.98;11.27;;;;;;;9.49;35.87;94300.50;5017981;28;20056;-80
2023/03/06 09:05:05;;;;;;;15.18;10.70;;;;;;;9.67;35.98;94309.28;5033794;28;20029;-80
2023/03/06 09:07:30;;;;;;;13.77;9.73;;;;;;;9.63;35.85;94300.13;5051634;28;20033;-80
2023/03/06 09:09:56;;;;;;;15.90;9.73;;;;;;;9.65;36.24;94300.81;5050282;28;20040;-80
2023/03/06 09:12:22;;;;;;;20.05;9.77;;;;;;;9.45;36.70;94299.13;5033693;28;20407;-80
2023/03/06 09:14:47;;;;;;;18.83;11.20;;;;;;;9.23;37.41;94303.56;5050569;28;20140;-79
2023/03/06 09:17:13;;;;;;;20.38;9.82;;;;;;;9.43;37.22;94296.66;5034000;28;20037;-80
2023/03/06 09:19:38;;;;;;;16.00;10.10;;;;;;;9.17;36.86;94299.72;5033825;28;20036;-80
2023/03/06 09:22:04;;;;;;;16.10;10.20;;;;;;;8.95;37.93;94307.69;5033885;28;20132;-79
2023/03/06 09:24:29;;;;;;;14.98;10.02;;;;;;;8.95;37.48;94281.78;5051311;28;20469;-80
2023/03/06 09:26:55;;;;;;;20.00;11.07;;;;;;;8.80;38.07;94299.41;5050301;28;20032;-80
2023/03/06 09:29:20;;;;;;;14.40;9.82;;;;;;;8.92;38.45;94288.03;5050278;28;20029;-80
2023/03/06 09:31:46;;;;;;;17.65;9.90;;;;;;;8.97;37.92;94299.75;5033404;28;20033;-80
2023/03/06 09:34:11;;;;;;;15.32;10.02;;;;;;;9.08;38.21;94295.34;5033617;28;20033;-80
2023/03/06 09:36:37;;;;;;;15.05;9.35;;;;;;;9.15;38.12;94298.22;5033820;28;20049;-80
2023/03/06 09:39:02;;;;;;;19.73;10.38;;;;;;;8.58;37.92;94222.75;5033503;28;20613;-80
2023/03/06 09:41:39;;;;;;;17.80;10.25;;;;;;;9.00;38.42;94283.94;5050062;28;20025;-80
2023/03/06 09:44:15;;;;;;;18.85;10.20;;;;;;;9.07;37.72;94291.09;5017076;28;20033;-80
2023/03/06 09:47:05;;;;;;;14.35;9.70;;;;;;;9.10;38.28;94296.00;5033325;28;20036;-80
2023/03/06 09:49:59;;;;;;;15.82;10.38;;;;;;;8.69;38.36;94237.34;5049970;28;20508;-79
2023/03/06 09:52:28;;;;;;;15.50;9.75;;;;;;;8.58;38.83;94290.06;5050195;28;20403;-80
2023/03/06 09:55:14;;;;;;;20.23;9.38;;;;;;;8.84;38.35;94285.28;5051140;28;20114;-80
2023/03/06 09:57:51;;;;;;;14.98;9.63;;;;;;;8.95;39.00;94280.00;5049730;28;20044;-79
2023/03/06 10:00:37;;;;;;;12.18;8.55;;;;;;;9.09;38.45;94278.00;5049170;28;20506;-80
2023/03/06 10:03:22;;;;;;;13.07;8.82;;;;;;;9.10;38.69;94279.63;5034293;28;20517;-80
2023/03/06 10:05:52;;;;;;;16.63;9.35;;;;;;;9.21;38.94;94273.53;5032818;28;20025;-80
2023/03/06 10:08:24;;;;;;;17.70;9.10;;;;;;;9.43;38.76;94270.72;5048953;28;20489;-80
2023/03/06 10:11:00;;;;;;;13.95;9.10;;;;;;;9.62;37.97;94267.38;5015799;28;20024;-79
2023/03/06 10:13:26;;;;;;;17.73;9.73;;;;;;;9.47;38.25;94266.94;5032649;28;20537;-80
2023/03/06 10:15:52;;;;;;;17.88;11.00;;;;;;;9.54;38.47;94268.03;5049818;28;20155;-80
2023/03/06 10:18:18;;;;;;;15.95;9.57;;;;;;;9.68;38.03;94247.84;5049103;28;20032;-80
2023/03/06 10:20:57;;;;;;;18.38;10.63;;;;;;;9.98;38.53;94258.09;5052345;28;20028;-80
2023/03/06 10:23:53;;;;;;;18.13;10.35;;;;;;;9.91;37.79;94261.38;5020724;28;20408;-80
2023/03/06 10:26:22;;;;;;;17.27;9.75;;;;;;;9.90;38.05;94257.16;5020465;28;20095;-80
2023/03/06 10:29:10;;;;;;;14.50;9.77;;;;;;;9.57;38.86;94241.00;5019368;28;20117;-79
2023/03/06 10:31:35;;;;;;;15.73;9.65;;;;;;;9.75;37.73;94229.03;5053602;28;20029;-80
2023/03/06 10:34:21;;;;;;;13.98;8.65;;;;;;;9.77;38.28;94237.47;5035435;28;20021;-80
2023/03/06 10:36:46;;;;;;;16.58;9.75;;;;;;;9.83;38.52;94233.50;5052008;28;20029;-80
2023/03/06 10:39:20;;;;;;;13.48;8.43;;;;;;;10.10;38.09;94238.00;5019123;28;20032;-80
2023/03/06 10:41:46;;;;;;;14.07;8.80;;;;;;;9.98;37.20;94239.94;5036253;28;20117;-80
2023/03/06 10:44:11;;;;;;;15.13;8.77;;;;;;;10.04;37.29;94230.78;5035624;28;20021;-80
2023/03/06 10:46:43;;;;;;;13.65;8.65;;;;;;;10.25;37.42;94226.25;5052809;28;20106;-80
2023/03/06 10:49:23;;;;;;;15.07;9.05;;;;;;;10.33;37.54;94225.56;5051798;28;20036;-80
2023/03/06 10:52:04;;;;;;;16.35;8.95;;;;;;;10.04;37.85;94217.81;5052973;28;20048;-79
2023/03/06 10:54:40;;;;;;;17.30;9.03;;;;;;;10.12;37.93;94220.53;5035421;28;20060;-80
2023/03/06 10:57:25;;;;;;;14.30;8.85;;;;;;;10.18;37.87;94225.16;5035701;28;20777;-80
2023/03/06 11:00:05;;;;;;;13.77;8.95;;;;;;;10.24;37.74;94203.03;4991593;28;1280593;-79
2023/03/06 11:02:39;;;;;;;14.63;8.73;;;;;;;10.25;37.49;94210.69;5036992;28;20036;-80
2023/03/06 11:05:10;;;;;;;18.17;8.65;;;;;;;10.11;36.87;94197.31;5053036;28;20051;-80
2023/03/06 11:07:36;;;;;;;13.65;8.75;;;;;;;10.49;37.00;94207.63;5019778;28;20025;-80
2023/03/06 11:10:15;;;;;;;14.57;8.60;;;;;;;10.51;36.24;94203.13;5036087;28;20041;-80
2023/03/06 11:12:41;;;;;;;11.77;7.22;;;;;;;10.41;35.83;94191.13;5037492;28;20457;-79
2023/03/06 11:15:22;;;;;;;12.63;7.75;;;;;;;10.83;35.90;94199.31;5019595;28;20061;-80
2023/03/06 11:18:00;;;;;;;13.13;7.40;;;;;;;10.78;35.14;94191.16;5052485;28;20108;-80
2023/03/06 11:20:39;;;;;;;12.20;7.28;;;;;;;10.84;35.31;94176.75;5052404;28;20041;-79
2023/03/06 11:23:16;;;;;;;14.70;7.63;;;;;;;10.93;35.74;94170.69;5052352;28;20032;-80
2023/03/06 11:26:04;;;;;;;11.15;6.43;;;;;;;11.22;34.63;94172.31;5035876;28;20430;-80